createdAt,value
2023-03-26T00:01:21.372Z,6.80
2023-03-26T00:03:53.651Z,6.78
2023-03-26T00:06:23.019Z,6.73
2023-03-26T00:08:50.864Z,6.84
2023-03-26T00:11:20.042Z,6.80
2023-03-26T00:13:47.685Z,6.89
2023-03-26T00:16:17.238Z,6.97
2023-03-26T00:18:44.670Z,7.04
2023-03-26T00:21:14.758Z,6.98
2023-03-26T00:23:42.129Z,6.95
2023-03-26T00:26:10.779Z,6.88
2023-03-26T00:28:40.558Z,6.98
2023-03-26T00:31:09.926Z,7.01
2023-03-26T00:33:38.565Z,6.77
2023-03-26T00:36:10.038Z,6.74
2023-03-26T00:38:39.284Z,6.80
2023-03-26T00:41:18.002Z,6.87
2023-03-26T00:43:49.301Z,6.83
2023-03-26T00:46:18.015Z,6.86
2023-03-26T00:48:46.234Z,6.87
2023-03-26T00:51:18.015Z,6.78
2023-03-26T00:53:46.444Z,6.97
2023-03-26T00:56:14.272Z,6.99
2023-03-26T00:58:41.019Z,6.92
2023-03-26T01:01:17.222Z,6.91
2023-03-26T01:03:57.108Z,6.97
2023-03-26T01:06:36.062Z,7.00
2023-03-26T01:09:12.736Z,6.87
2023-03-26T01:11:39.485Z,6.90
2023-03-26T01:14:11.077Z,6.84
2023-03-26T01:16:45.438Z,6.79
2023-03-26T01:19:30.004Z,6.79
2023-03-26T01:21:58.338Z,6.75
2023-03-26T01:24:24.991Z,6.75
2023-03-26T01:27:17.920Z,6.59
2023-03-26T01:30:05.207Z,6.62
2023-03-26T01:32:48.713Z,6.48
2023-03-26T01:35:30.733Z,6.40
2023-03-26T01:38:11.610Z,6.50
2023-03-26T01:41:04.888Z,6.55
2023-03-26T01:43:38.990Z,6.56
2023-03-26T01:46:09.341Z,6.45
2023-03-26T01:48:39.506Z,6.48
2023-03-26T01:51:07.048Z,6.53
2023-03-26T01:53:39.158Z,6.54
2023-03-26T01:56:10.943Z,6.68
2023-03-26T01:58:41.751Z,6.71
2023-03-26T02:01:24.465Z,6.72
2023-03-26T02:03:56.297Z,6.70
2023-03-26T02:06:34.470Z,6.62
2023-03-26T02:09:08.026Z,6.61
2023-03-26T02:11:37.708Z,6.60
2023-03-26T02:14:06.132Z,6.50
2023-03-26T02:16:33.105Z,6.46
2023-03-26T02:19:00.389Z,6.41
2023-03-26T02:21:28.583Z,6.31
2023-03-26T02:24:02.865Z,6.29
2023-03-26T02:26:31.861Z,6.26
2023-03-26T02:28:59.003Z,6.30
2023-03-26T02:31:26.443Z,6.19
2023-03-26T02:33:56.687Z,6.17
2023-03-26T02:38:55.696Z,6.29
2023-03-26T02:41:22.554Z,6.33
2023-03-26T02:43:49.171Z,6.21
2023-03-26T02:46:16.127Z,6.17
2023-03-26T02:48:44.049Z,6.16
2023-03-26T02:51:11.008Z,6.19
2023-03-26T02:53:39.506Z,6.25
2023-03-26T02:56:06.945Z,6.44
2023-03-26T02:58:33.727Z,6.38
2023-03-26T03:01:03.307Z,6.41
2023-03-26T03:03:31.203Z,6.34
2023-03-26T03:05:58.272Z,6.43
2023-03-26T03:08:28.240Z,6.38
2023-03-26T03:11:00.934Z,6.39
2023-03-26T03:13:28.730Z,6.41
2023-03-26T03:15:56.288Z,6.37
2023-03-26T03:18:23.259Z,6.43
2023-03-26T03:20:50.360Z,6.35
2023-03-26T03:23:17.417Z,6.54
2023-03-26T03:25:44.144Z,6.40
2023-03-26T03:28:11.253Z,6.35
2023-03-26T03:30:38.179Z,6.34
2023-03-26T03:33:06.196Z,6.39
2023-03-26T03:35:33.729Z,6.40
2023-03-26T03:38:01.029Z,6.45
2023-03-26T03:40:28.016Z,6.40
2023-03-26T03:42:54.732Z,6.34
2023-03-26T03:45:21.487Z,6.36
2023-03-26T03:47:48.468Z,6.36
2023-03-26T03:50:15.497Z,6.33
2023-03-26T03:52:42.125Z,6.34
2023-03-26T03:55:10.658Z,6.41
2023-03-26T03:57:37.368Z,6.46
2023-03-26T04:00:06.844Z,6.47
2023-03-26T04:02:35.163Z,6.49
2023-03-26T04:05:02.968Z,6.49
2023-03-26T04:07:33.350Z,6.41
2023-03-26T04:10:02.045Z,6.44
2023-03-26T04:12:30.000Z,6.31
2023-03-26T04:14:56.766Z,6.20
2023-03-26T04:17:23.446Z,6.14
2023-03-26T04:19:53.112Z,6.11
2023-03-26T04:22:19.886Z,6.28
2023-03-26T04:24:48.863Z,6.19
2023-03-26T04:27:19.035Z,6.38
2023-03-26T04:29:49.951Z,6.32
2023-03-26T04:32:26.762Z,6.36
2023-03-26T04:34:53.740Z,6.30
2023-03-26T04:37:27.515Z,6.32
2023-03-26T04:39:55.305Z,6.30
2023-03-26T04:42:22.516Z,6.31
2023-03-26T04:44:52.267Z,6.37
2023-03-26T04:47:19.203Z,6.35
2023-03-26T04:49:48.830Z,6.27
2023-03-26T04:52:16.084Z,6.36
2023-03-26T04:54:46.356Z,6.29
2023-03-26T04:57:22.434Z,6.39
2023-03-26T04:59:50.187Z,6.28
2023-03-26T05:02:18.154Z,6.26
2023-03-26T05:04:49.986Z,6.29
2023-03-26T05:07:25.172Z,6.36
2023-03-26T05:09:51.973Z,6.34
2023-03-26T05:12:18.793Z,6.29
2023-03-26T05:14:45.408Z,6.29
2023-03-26T05:17:15.084Z,6.44
2023-03-26T05:19:41.798Z,6.25
2023-03-26T05:22:08.456Z,6.26
2023-03-26T05:24:35.525Z,6.37
2023-03-26T05:27:02.153Z,6.26
2023-03-26T05:29:28.827Z,6.25
2023-03-26T05:31:55.576Z,6.53
2023-03-26T05:34:26.459Z,6.48
2023-03-26T05:36:53.197Z,6.48
2023-03-26T05:39:22.807Z,6.33
2023-03-26T05:41:50.201Z,6.41
2023-03-26T05:44:19.401Z,6.44
2023-03-26T05:46:46.132Z,6.62
2023-03-26T05:49:12.804Z,6.52
2023-03-26T05:51:39.421Z,6.55
2023-03-26T05:54:06.030Z,6.53
2023-03-26T05:56:32.714Z,6.56
2023-03-26T05:58:59.448Z,6.69
2023-03-26T06:01:26.125Z,6.75
2023-03-26T06:03:52.791Z,6.66
2023-03-26T06:06:20.904Z,6.70
2023-03-26T06:09:01.860Z,6.78
2023-03-26T06:11:29.909Z,6.77
2023-03-26T06:13:56.567Z,6.74
2023-03-26T06:16:27.333Z,6.96
2023-03-26T06:18:56.727Z,6.90
2023-03-26T06:21:25.661Z,7.10
2023-03-26T06:23:53.084Z,7.05
2023-03-26T06:26:20.775Z,6.89
2023-03-26T06:28:47.875Z,6.87
2023-03-26T06:31:14.550Z,6.89
2023-03-26T06:33:41.201Z,6.98
2023-03-26T06:36:08.268Z,7.03
2023-03-26T06:38:34.892Z,6.99
2023-03-26T06:41:06.293Z,7.00
2023-03-26T06:43:33.946Z,7.09
2023-03-26T06:46:04.369Z,7.13
2023-03-26T06:48:31.836Z,7.06
2023-03-26T06:50:58.461Z,7.03
2023-03-26T06:53:25.286Z,7.17
2023-03-26T06:55:53.847Z,7.27
2023-03-26T06:58:21.020Z,7.33
2023-03-26T07:00:48.906Z,7.37
2023-03-26T07:03:17.368Z,7.30
2023-03-26T07:05:44.097Z,7.55
2023-03-26T07:08:10.842Z,7.50
2023-03-26T07:10:37.825Z,7.41
2023-03-26T07:13:04.522Z,7.58
2023-03-26T07:15:31.128Z,7.73
2023-03-26T07:17:58.027Z,7.83
2023-03-26T07:20:25.608Z,7.88
2023-03-26T07:22:53.179Z,7.90
2023-03-26T07:25:20.573Z,7.89
2023-03-26T07:28:12.352Z,8.11
2023-03-26T07:31:08.479Z,7.84
2023-03-26T07:33:49.415Z,7.76
2023-03-26T07:36:43.564Z,7.91
2023-03-26T07:39:19.322Z,7.75
2023-03-26T07:42:10.354Z,7.79
2023-03-26T07:44:46.049Z,7.89
2023-03-26T07:47:26.071Z,7.80
2023-03-26T07:49:54.802Z,7.76
2023-03-26T07:52:22.006Z,7.79
2023-03-26T07:54:49.333Z,7.58
2023-03-26T07:57:37.033Z,7.68
2023-03-26T08:00:12.300Z,7.79
2023-03-26T08:03:12.628Z,7.75
2023-03-26T08:05:52.403Z,7.78
2023-03-26T08:08:34.806Z,7.68
2023-03-26T08:11:39.011Z,7.74
2023-03-26T08:14:27.755Z,7.79
2023-03-26T08:16:59.304Z,7.67
2023-03-26T08:19:49.409Z,7.89
2023-03-26T08:22:27.384Z,8.06
2023-03-26T08:25:01.293Z,8.04
2023-03-26T08:27:41.301Z,7.80
2023-03-26T08:30:08.427Z,8.25
2023-03-26T08:32:35.688Z,8.50
2023-03-26T08:35:04.094Z,8.43
2023-03-26T08:37:30.691Z,8.74
2023-03-26T08:39:57.541Z,8.64
2023-03-26T08:42:57.390Z,8.58
2023-03-26T08:45:34.120Z,8.64
2023-03-26T08:48:22.400Z,8.60
2023-03-26T08:50:55.009Z,8.83
2023-03-26T08:53:46.011Z,8.56
2023-03-26T08:56:37.054Z,8.79
2023-03-26T08:59:12.917Z,9.10
2023-03-26T09:01:57.821Z,8.83
2023-03-26T09:04:46.987Z,8.66
2023-03-26T09:07:32.101Z,9.01
2023-03-26T09:10:42.280Z,9.25
2023-03-26T09:13:39.820Z,9.04
2023-03-26T09:16:27.879Z,9.42
2023-03-26T09:19:06.855Z,9.24
2023-03-26T09:21:58.152Z,9.21
2023-03-26T09:25:02.027Z,9.36
2023-03-26T09:27:59.074Z,9.76
2023-03-26T09:30:43.877Z,9.28
2023-03-26T09:33:11.700Z,9.09
2023-03-26T09:36:17.090Z,9.35
2023-03-26T09:39:07.497Z,9.62
2023-03-26T09:42:06.852Z,9.86
2023-03-26T09:44:59.889Z,9.84
2023-03-26T09:47:50.021Z,9.91
2023-03-26T09:50:25.963Z,10.20
2023-03-26T09:53:11.028Z,10.20
2023-03-26T09:55:48.666Z,10.18
2023-03-26T09:58:24.249Z,10.31
2023-03-26T10:01:05.780Z,10.14
2023-03-26T10:03:54.767Z,10.15
2023-03-26T10:06:44.884Z,10.20
2023-03-26T10:09:42.142Z,10.02
2023-03-26T10:12:08.744Z,10.33
2023-03-26T10:14:48.472Z,10.40
2023-03-26T10:17:34.455Z,10.13
2023-03-26T10:20:29.081Z,10.14
2023-03-26T10:23:35.850Z,10.27
2023-03-26T10:26:33.478Z,10.36
2023-03-26T10:29:23.330Z,10.44
2023-03-26T10:32:09.969Z,10.69
2023-03-26T10:34:48.361Z,10.71
2023-03-26T10:37:48.960Z,10.30
2023-03-26T10:40:42.826Z,10.03
2023-03-26T10:43:37.029Z,10.08
2023-03-26T10:46:36.563Z,9.98
2023-03-26T10:49:21.796Z,9.88
2023-03-26T10:51:55.026Z,9.98
2023-03-26T10:54:56.341Z,10.13
2023-03-26T10:57:51.365Z,10.58
2023-03-26T11:00:25.020Z,10.31
2023-03-26T11:03:14.598Z,10.34
2023-03-26T11:06:06.125Z,10.40
2023-03-26T11:09:14.591Z,10.53
2023-03-26T11:12:25.713Z,10.53
2023-03-26T11:15:37.600Z,10.28
2023-03-26T11:18:26.165Z,10.24
2023-03-26T11:21:26.634Z,10.15
2023-03-26T11:24:14.875Z,9.95
2023-03-26T11:27:15.556Z,10.04
2023-03-26T11:29:43.095Z,10.68
2023-03-26T11:32:14.074Z,10.93
2023-03-26T11:34:49.352Z,11.02
2023-03-26T11:37:24.147Z,11.21
2023-03-26T11:39:56.839Z,11.06
2023-03-26T11:42:25.667Z,11.33
2023-03-26T11:44:58.773Z,11.05
2023-03-26T11:47:35.373Z,11.08
2023-03-26T11:50:03.523Z,11.09
2023-03-26T11:52:30.569Z,11.12
2023-03-26T11:54:58.658Z,11.42
2023-03-26T11:57:35.293Z,11.06
2023-03-26T12:00:16.254Z,11.23
2023-03-26T12:02:43.806Z,11.42
2023-03-26T12:05:18.561Z,11.38
2023-03-26T12:07:57.446Z,11.35
2023-03-26T12:10:40.044Z,11.86
2023-03-26T12:13:23.031Z,11.86
2023-03-26T12:15:49.665Z,12.36
2023-03-26T12:18:27.503Z,12.54
2023-03-26T12:21:10.286Z,12.53
2023-03-26T12:23:43.662Z,12.32
2023-03-26T12:26:31.788Z,12.02
2023-03-26T12:29:06.861Z,12.02
2023-03-26T12:32:01.525Z,12.31
2023-03-26T12:34:37.110Z,12.20
2023-03-26T12:37:06.132Z,12.65
2023-03-26T12:40:07.522Z,12.94
2023-03-26T12:44:47.212Z,12.61
2023-03-26T12:45:24.239Z,12.89
2023-03-26T12:47:59.507Z,12.45
2023-03-26T12:51:01.901Z,11.77
2023-03-26T12:54:03.158Z,11.55
2023-03-26T12:57:20.525Z,11.45
2023-03-26T13:00:25.282Z,11.39
2023-03-26T13:02:54.676Z,11.12
2023-03-26T13:05:34.204Z,11.04
2023-03-26T13:08:19.329Z,10.95
2023-03-26T13:11:10.854Z,11.24
2023-03-26T13:13:37.606Z,11.24
2023-03-26T13:16:14.089Z,11.54
2023-03-26T13:18:43.641Z,11.81
2023-03-26T13:21:31.014Z,11.85
2023-03-26T13:24:27.938Z,11.87
2023-03-26T13:27:05.767Z,12.28
2023-03-26T13:30:01.051Z,12.20
2023-03-26T13:33:01.770Z,11.92
2023-03-26T13:35:49.504Z,11.82
2023-03-26T13:38:29.330Z,11.98
2023-03-26T13:41:20.328Z,12.46
2023-03-26T13:44:09.926Z,12.62
2023-03-26T13:47:11.021Z,12.46
2023-03-26T13:49:44.131Z,12.99
2023-03-26T13:52:17.538Z,12.88
2023-03-26T13:54:54.418Z,12.48
2023-03-26T13:57:43.186Z,12.21
2023-03-26T14:00:57.941Z,12.77
2023-03-26T14:03:24.767Z,12.75
2023-03-26T14:05:55.965Z,12.57
2023-03-26T14:08:32.733Z,12.58
2023-03-26T14:11:10.887Z,12.29
2023-03-26T14:13:51.539Z,12.20
2023-03-26T14:16:27.269Z,12.08
2023-03-26T14:19:12.421Z,12.04
2023-03-26T14:22:11.293Z,11.88
2023-03-26T14:24:59.020Z,12.12
2023-03-26T14:27:40.396Z,11.97
2023-03-26T14:30:16.185Z,11.92
2023-03-26T14:33:07.639Z,11.83
2023-03-26T14:35:43.057Z,11.80
2023-03-26T14:38:56.890Z,11.67
2023-03-26T14:41:29.634Z,11.80
2023-03-26T14:44:01.835Z,11.79
2023-03-26T14:46:28.341Z,11.73
2023-03-26T14:49:27.433Z,11.39
2023-03-26T14:52:18.360Z,11.42
2023-03-26T14:54:48.659Z,11.33
2023-03-26T14:57:24.097Z,11.43
2023-03-26T15:00:15.683Z,11.51
2023-03-26T15:02:53.575Z,11.58
2023-03-26T15:05:27.189Z,11.43
2023-03-26T15:08:17.183Z,11.46
2023-03-26T15:11:11.047Z,11.22
2023-03-26T15:13:50.510Z,11.37
2023-03-26T15:16:52.464Z,11.40
2023-03-26T15:19:37.041Z,11.51
2023-03-26T15:22:40.924Z,11.57
2023-03-26T15:25:45.371Z,11.47
2023-03-26T15:28:26.066Z,11.31
2023-03-26T15:31:31.799Z,11.30
2023-03-26T15:34:31.145Z,11.13
2023-03-26T15:37:34.985Z,11.24
2023-03-26T15:40:26.074Z,11.16
2023-03-26T15:43:01.967Z,11.12
2023-03-26T15:45:35.924Z,10.88
2023-03-26T15:48:11.078Z,10.83
2023-03-26T15:50:56.318Z,10.65
2023-03-26T15:53:43.601Z,10.53
2023-03-26T15:56:37.834Z,10.45
2023-03-26T15:59:23.490Z,10.23
2023-03-26T16:02:22.818Z,10.07
2023-03-26T16:05:21.363Z,10.16
2023-03-26T16:07:53.085Z,10.28
2023-03-26T16:10:51.320Z,10.31
2023-03-26T16:13:38.080Z,10.12
2023-03-26T16:16:04.741Z,10.20
2023-03-26T16:18:33.004Z,10.06
2023-03-26T16:21:32.800Z,10.06
2023-03-26T16:24:02.801Z,10.08
2023-03-26T16:26:45.492Z,10.03
2023-03-26T16:29:15.753Z,10.02
2023-03-26T16:32:10.326Z,9.88
2023-03-26T16:34:42.052Z,9.81
2023-03-26T16:37:36.818Z,9.87
2023-03-26T16:40:20.699Z,9.78
2023-03-26T16:43:09.274Z,9.67
2023-03-26T16:46:02.499Z,9.60
2023-03-26T16:48:34.921Z,9.67
2023-03-26T16:51:16.988Z,9.57
2023-03-26T16:53:52.671Z,9.34
2023-03-26T16:56:31.119Z,9.34
2023-03-26T16:59:43.028Z,9.23
2023-03-26T17:02:41.772Z,9.07
2023-03-26T17:05:43.484Z,8.84
2023-03-26T17:08:16.465Z,8.76
2023-03-26T17:11:07.973Z,8.66
2023-03-26T17:13:55.171Z,8.87
2023-03-26T17:16:32.459Z,8.74
2023-03-26T17:19:14.108Z,8.69
2023-03-26T17:22:31.984Z,8.68
2023-03-26T17:25:04.967Z,8.49
2023-03-26T17:28:07.481Z,8.38
2023-03-26T17:30:52.925Z,8.30
2023-03-26T17:33:26.833Z,8.15
2023-03-26T17:36:21.348Z,8.01
2023-03-26T17:38:47.999Z,7.95
2023-03-26T17:41:55.469Z,7.86
2023-03-26T17:44:42.302Z,7.71
2023-03-26T17:47:20.092Z,7.64
2023-03-26T17:49:51.154Z,7.63
2023-03-26T17:52:23.060Z,7.58
2023-03-26T17:54:52.590Z,7.51
2023-03-26T17:57:22.239Z,7.57
2023-03-26T17:59:51.226Z,7.43
2023-03-26T18:02:22.467Z,7.43
2023-03-26T18:04:53.628Z,7.39
2023-03-26T18:07:29.463Z,7.54
2023-03-26T18:10:12.967Z,7.54
2023-03-26T18:13:01.998Z,7.58
2023-03-26T18:16:05.547Z,7.71
2023-03-26T18:18:35.351Z,7.66
2023-03-26T18:21:07.180Z,7.73
2023-03-26T18:23:41.270Z,7.72
2023-03-26T18:26:23.465Z,7.60
2023-03-26T18:28:53.315Z,7.51
2023-03-26T18:31:26.882Z,7.45
2023-03-26T18:33:59.385Z,7.47
2023-03-26T18:36:30.532Z,7.35
2023-03-26T18:39:00.891Z,7.28
2023-03-26T18:41:31.228Z,7.29
2023-03-26T18:44:03.005Z,7.38
2023-03-26T18:46:30.014Z,7.40
2023-03-26T18:48:58.751Z,7.38
2023-03-26T18:51:27.323Z,7.33
2023-03-26T18:54:04.873Z,7.31
2023-03-26T18:56:31.909Z,7.29
2023-03-26T18:59:02.536Z,7.30
2023-03-26T19:01:32.540Z,7.25
2023-03-26T19:04:04.046Z,7.21
2023-03-26T19:06:36.238Z,7.54
2023-03-26T19:09:23.810Z,7.41
2023-03-26T19:11:58.865Z,7.48
2023-03-26T19:14:27.093Z,7.41
2023-03-26T19:17:01.272Z,7.43
2023-03-26T19:19:33.779Z,7.48
2023-03-26T19:22:00.398Z,7.54
2023-03-26T19:24:27.559Z,7.39
2023-03-26T19:26:54.297Z,7.41
2023-03-26T19:29:33.456Z,7.46
2023-03-26T19:32:18.453Z,7.47
2023-03-26T19:34:47.134Z,7.54
2023-03-26T19:37:32.406Z,7.24
2023-03-26T19:40:14.258Z,7.32
2023-03-26T19:42:44.743Z,7.50
2023-03-26T19:45:23.392Z,7.34
2023-03-26T19:48:00.400Z,7.51
2023-03-26T19:50:36.906Z,7.32
2023-03-26T19:53:24.246Z,7.13
2023-03-26T19:56:18.823Z,7.35
2023-03-26T19:58:45.856Z,7.43
2023-03-26T20:01:33.550Z,7.34
2023-03-26T20:04:05.209Z,7.15
2023-03-26T20:06:43.069Z,7.31
2023-03-26T20:09:12.229Z,7.16
2023-03-26T20:11:39.924Z,7.16
2023-03-26T20:14:15.698Z,7.06
2023-03-26T20:16:45.346Z,7.09
2023-03-26T20:19:14.340Z,7.07
2023-03-26T20:21:41.718Z,6.87
2023-03-26T20:24:15.083Z,6.93
2023-03-26T20:26:42.632Z,6.77
2023-03-26T20:29:10.198Z,6.85
2023-03-26T20:31:37.621Z,6.84
2023-03-26T20:34:07.417Z,6.59
2023-03-26T20:36:35.609Z,6.51
2023-03-26T20:39:07.934Z,6.57
2023-03-26T20:41:36.053Z,6.34
2023-03-26T20:44:04.950Z,6.30
2023-03-26T20:46:33.200Z,6.31
2023-03-26T20:49:00.193Z,6.39
2023-03-26T20:51:28.485Z,6.39
2023-03-26T20:53:55.811Z,6.36
2023-03-26T20:56:22.746Z,6.11
2023-03-26T20:58:54.812Z,6.04
2023-03-26T21:01:27.856Z,6.05
2023-03-26T21:03:54.647Z,6.08
2023-03-26T21:06:21.452Z,5.82
2023-03-26T21:08:48.294Z,5.85
2023-03-26T21:11:15.622Z,5.82
2023-03-26T21:14:02.000Z,5.76
2023-03-26T21:16:29.958Z,5.89
2023-03-26T21:18:57.456Z,5.90
2023-03-26T21:21:47.648Z,5.72
2023-03-26T21:24:59.603Z,5.76
2023-03-26T21:27:39.335Z,5.72
2023-03-26T21:30:16.844Z,5.84
2023-03-26T21:32:44.972Z,5.93
2023-03-26T21:35:16.343Z,5.90
2023-03-26T21:37:45.701Z,5.67
2023-03-26T21:40:16.733Z,5.70
2023-03-26T21:42:47.333Z,5.61
2023-03-26T21:45:14.668Z,5.57
2023-03-26T21:47:43.164Z,5.64
2023-03-26T21:50:13.500Z,5.61
2023-03-26T21:52:47.219Z,5.43
2023-03-26T21:55:19.085Z,5.29
2023-03-26T21:58:13.281Z,5.21
2023-03-26T22:00:54.123Z,5.30
2023-03-26T22:03:30.337Z,5.33
2023-03-26T22:06:12.724Z,5.34
2023-03-26T22:08:41.399Z,5.31
2023-03-26T22:11:11.363Z,5.29
2023-03-26T22:13:38.922Z,5.18
2023-03-26T22:16:07.421Z,5.21
2023-03-26T22:18:34.160Z,5.11
2023-03-26T22:21:01.607Z,5.13
2023-03-26T22:23:34.369Z,5.09
2023-03-26T22:26:01.117Z,4.95
2023-03-26T22:28:27.742Z,4.95
2023-03-26T22:30:54.650Z,4.83
2023-03-26T22:33:21.782Z,4.97
2023-03-26T22:35:48.472Z,4.99
2023-03-26T22:38:17.059Z,4.86
2023-03-26T22:40:43.930Z,4.80
2023-03-26T22:43:10.553Z,4.92
2023-03-26T22:45:37.757Z,4.94
2023-03-26T22:48:04.757Z,4.94
2023-03-26T22:50:32.392Z,4.81
2023-03-26T22:52:59.049Z,4.83
2023-03-26T22:55:28.731Z,4.68
2023-03-26T22:57:56.917Z,4.78
2023-03-26T23:00:23.954Z,4.55
2023-03-26T23:02:50.617Z,4.56
2023-03-26T23:05:18.022Z,4.58
2023-03-26T23:07:46.130Z,4.75
2023-03-26T23:10:13.258Z,4.59
2023-03-26T23:12:40.334Z,4.61
2023-03-26T23:15:08.049Z,4.71
2023-03-26T23:17:37.608Z,4.70
2023-03-26T23:20:12.600Z,4.66
2023-03-26T23:22:39.243Z,4.65
2023-03-26T23:25:10.106Z,4.61
2023-03-26T23:27:37.191Z,4.53
2023-03-26T23:30:05.266Z,4.47
2023-03-26T23:32:31.945Z,4.31
2023-03-26T23:34:59.703Z,4.46
2023-03-26T23:37:26.778Z,4.32
2023-03-26T23:39:53.705Z,4.36
2023-03-26T23:42:28.918Z,4.43
2023-03-26T23:44:57.038Z,4.23
2023-03-26T23:47:23.923Z,4.18
2023-03-26T23:49:50.907Z,4.18
2023-03-26T23:52:17.572Z,4.22
2023-03-26T23:54:45.168Z,4.18
2023-03-26T23:57:11.902Z,4.19
2023-03-26T23:59:41.447Z,4.05
